Time;durP1;ratioP1;P1;durP2;ratioP2;P2;SDS_P1;SDS_P2;PMS_P1;PMS_P2;Temp;Humidity;BMP_temperature;BMP_pressure;BME280_temperature;BME280_humidity;BME280_pressure;Samples;Min_cycle;Max_cycle;Signal;HPM_P1;HPM_P2
2023/12/22 00:01:26;;;;;;;20.60;4.10;;;5.50;99.90;;;;;;4250030;27;20062;-81
2023/12/22 00:03:27;;;;;;;22.42;3.55;;;5.50;99.90;;;;;;4250542;27;20031;-82
2023/12/22 00:05:29;;;;;;;18.05;2.47;;;6.20;99.90;;;;;;4250262;27;20095;-82
2023/12/22 00:07:29;;;;;;;21.05;2.85;;;5.70;99.90;;;;;;4250254;27;20039;-82
2023/12/22 00:09:31;;;;;;;24.73;3.53;;;5.70;99.90;;;;;;4249849;27;20122;-82
2023/12/22 00:11:33;;;;;;;15.05;1.90;;;6.00;99.90;;;;;;4249919;27;20082;-81
2023/12/22 00:13:34;;;;;;;21.02;4.00;;;5.70;99.90;;;;;;4227082;28;20047;-81
2023/12/22 00:15:35;;;;;;;16.10;3.25;;;5.80;99.90;;;;;;4250204;27;20039;-82
2023/12/22 00:17:36;;;;;;;12.35;3.15;;;5.70;99.90;;;;;;4250010;27;20039;-82
2023/12/22 00:19:37;;;;;;;15.98;2.00;;;5.70;99.90;;;;;;4249555;27;20437;-82
2023/12/22 00:21:38;;;;;;;17.27;1.83;;;5.50;99.90;;;;;;4249380;27;20049;-82
2023/12/22 00:23:39;;;;;;;19.20;2.67;;;5.40;99.90;;;;;;4250018;27;20054;-82
2023/12/22 00:25:42;;;;;;;14.00;2.97;;;5.40;99.90;;;;;;4250000;27;20131;-82
2023/12/22 00:27:43;;;;;;;17.00;2.05;;;5.30;99.90;;;;;;4231368;28;20043;-82
2023/12/22 00:29:43;;;;;;;14.90;3.05;;;5.20;99.90;;;;;;4243870;27;20050;-81
2023/12/22 00:31:44;;;;;;;16.52;2.72;;;5.20;99.90;;;;;;4250439;27;20051;-81
2023/12/22 00:33:45;;;;;;;14.18;2.03;;;5.20;99.90;;;;;;4249138;27;20070;-82
2023/12/22 00:35:45;;;;;;;13.25;2.42;;;5.30;99.90;;;;;;4231422;28;20122;-82
2023/12/22 00:37:47;;;;;;;14.77;1.92;;;5.40;99.90;;;;;;4249711;27;20126;-82
2023/12/22 00:39:47;;;;;;;15.68;2.97;;;5.40;99.90;;;;;;4231457;28;20040;-82
2023/12/22 00:41:49;;;;;;;11.77;1.63;;;5.40;99.90;;;;;;4250103;27;20070;-82
2023/12/22 00:43:50;;;;;;;8.10;0.80;;;6.20;99.90;;;;;;4249882;27;20083;-82
2023/12/22 00:45:51;;;;;;;9.73;1.30;;;5.10;99.90;;;;;;4249630;27;20055;-81
2023/12/22 00:47:53;;;;;;;7.97;1.35;;;4.90;99.90;;;;;;4250086;27;20035;-81
2023/12/22 00:49:54;;;;;;;9.55;3.15;;;4.90;99.90;;;;;;4248132;27;20390;-82
2023/12/22 00:51:56;;;;;;;14.52;1.48;;;5.60;99.90;;;;;;4245375;27;20043;-82
2023/12/22 00:53:57;;;;;;;22.48;2.00;;;5.70;99.90;;;;;;4232769;28;20055;-82
2023/12/22 00:56:00;;;;;;;15.30;3.35;;;4.90;99.90;;;;;;4237407;28;20130;-82
2023/12/22 00:58:01;;;;;;;15.80;2.70;;;4.90;99.90;;;;;;4234019;28;20044;-82
2023/12/22 01:00:05;;;;;;;14.13;2.10;;;5.00;99.90;;;;;;4241556;27;20452;-82
2023/12/22 01:02:07;;;;;;;13.88;3.47;;;5.10;99.90;;;;;;4249983;28;20047;-82
2023/12/22 01:04:13;;;;;;;25.52;3.13;;;5.10;99.90;;;;;;4250092;28;20058;-82
2023/12/22 01:06:14;;;;;;;13.38;2.22;;;5.20;99.90;;;;;;4249961;28;20039;-82
2023/12/22 01:08:16;;;;;;;11.35;2.17;;;5.20;99.90;;;;;;4231341;28;20078;-82
2023/12/22 01:10:17;;;;;;;9.93;1.98;;;5.20;99.90;;;;;;4249139;28;20498;-82
2023/12/22 01:12:17;;;;;;;15.95;2.05;;;5.20;99.90;;;;;;4249837;28;20047;-82
2023/12/22 01:14:18;;;;;;;18.95;2.70;;;5.20;99.90;;;;;;4249844;28;20039;-82
2023/12/22 01:16:21;;;;;;;15.50;2.47;;;5.50;99.90;;;;;;4248858;28;20051;-82
2023/12/22 01:18:25;;;;;;;20.08;2.85;;;6.00;99.90;;;;;;4220678;28;20044;-82
2023/12/22 01:20:26;;;;;;;21.15;3.63;;;5.90;99.90;;;;;;4249449;28;20399;-82
2023/12/22 01:22:28;;;;;;;20.38;2.70;;;5.30;99.90;;;;;;4231003;28;20058;-82
2023/12/22 01:24:29;;;;;;;22.67;2.78;;;5.30;99.90;;;;;;4231710;28;20044;-82
2023/12/22 01:26:30;;;;;;;19.27;3.53;;;5.30;99.90;;;;;;4249987;27;20046;-82
2023/12/22 01:28:31;;;;;;;21.40;3.65;;;5.40;99.90;;;;;;4250027;28;20054;-82
2023/12/22 01:30:32;;;;;;;22.00;3.53;;;5.50;99.90;;;;;;4249264;28;20517;-82
2023/12/22 01:32:35;;;;;;;20.67;3.58;;;5.50;99.90;;;;;;4248602;28;20043;-82
2023/12/22 01:34:36;;;;;;;22.77;4.70;;;5.50;99.90;;;;;;4247455;28;20039;-82
2023/12/22 01:36:36;;;;;;;21.15;3.60;;;5.60;99.90;;;;;;4234228;28;20437;-82
2023/12/22 01:38:38;;;;;;;26.55;3.72;;;5.60;99.90;;;;;;4233351;28;20165;-82
2023/12/22 01:40:39;;;;;;;30.00;3.95;;;5.60;99.90;;;;;;4245242;27;20054;-81
2023/12/22 01:42:40;;;;;;;20.55;3.22;;;6.00;99.90;;;;;;4251802;27;20398;-82
2023/12/22 01:44:41;;;;;;;25.60;2.92;;;5.70;99.90;;;;;;4233740;28;20098;-81
2023/12/22 01:46:42;;;;;;;18.42;3.05;;;5.60;99.90;;;;;;4252087;27;20050;-82
2023/12/22 01:48:44;;;;;;;31.35;3.55;;;5.60;99.90;;;;;;4251896;27;20051;-82
2023/12/22 01:50:46;;;;;;;23.52;2.63;;;5.60;99.90;;;;;;4252125;27;20100;-82
2023/12/22 01:52:47;;;;;;;12.23;1.67;;;5.60;99.90;;;;;;4251128;27;20043;-82
2023/12/22 01:54:49;;;;;;;11.65;2.10;;;5.50;99.90;;;;;;4252197;27;20047;-82
2023/12/22 01:56:50;;;;;;;10.23;1.05;;;5.40;99.90;;;;;;4248728;27;20065;-82
2023/12/22 01:58:57;;;;;;;6.35;1.00;;;5.40;99.90;;;;;;4235744;28;20122;-81
2023/12/22 02:01:01;;;;;;;11.65;1.55;;;5.30;99.90;;;;;;4249676;27;20508;-82
2023/12/22 02:03:02;;;;;;;14.93;2.53;;;5.20;99.90;;;;;;4252382;27;20047;-82
2023/12/22 02:05:03;;;;;;;19.48;2.20;;;5.20;99.90;;;;;;4252259;27;20039;-82
2023/12/22 02:07:08;;;;;;;15.90;2.35;;;5.20;99.90;;;;;;4251995;27;20082;-82
2023/12/22 02:09:08;;;;;;;20.08;2.85;;;5.10;99.90;;;;;;4251765;27;20498;-82
2023/12/22 02:11:09;;;;;;;19.35;2.72;;;5.10;99.90;;;;;;4251596;27;20051;-82
2023/12/22 02:13:10;;;;;;;26.65;2.95;;;5.20;99.90;;;;;;4251610;27;20403;-82
2023/12/22 02:15:11;;;;;;;15.55;2.45;;;5.20;99.90;;;;;;4251751;27;20043;-82
2023/12/22 02:17:22;;;;;;;7.28;1.77;;;5.30;99.90;;;;;;4247570;27;20042;-82
2023/12/22 02:19:42;;;;;;;8.80;1.52;;;6.10;99.90;;;;;;4250159;27;20039;-82
2023/12/22 02:22:07;;;;;;;14.32;1.55;;;5.40;99.90;;;;;;4233461;28;20119;-82
2023/12/22 02:24:07;;;;;;;6.10;0.80;;;5.00;99.90;;;;;;4251500;27;20046;-81
2023/12/22 02:26:24;;;;;;;7.57;1.08;;;5.30;99.90;;;;;;4251887;27;20043;-81
2023/12/22 02:28:25;;;;;;;8.38;1.00;;;5.20;99.90;;;;;;4251536;27;20047;-81
2023/12/22 02:30:36;;;;;;;8.25;1.00;;;5.10;99.90;;;;;;4252436;27;20122;-82
2023/12/22 02:32:43;;;;;;;14.57;2.33;;;5.10;99.90;;;;;;4251519;27;20043;-81
2023/12/22 02:34:47;;;;;;;7.55;1.60;;;5.10;99.90;;;;;;4241045;27;20519;-81
2023/12/22 02:36:50;;;;;;;15.18;2.00;;;5.10;99.90;;;;;;4235835;27;20087;-82
2023/12/22 02:38:54;;;;;;;12.88;1.85;;;5.00;99.90;;;;;;4245322;27;20487;-82
2023/12/22 02:40:56;;;;;;;13.48;1.50;;;5.00;99.90;;;;;;4251743;27;20039;-82
2023/12/22 02:42:57;;;;;;;13.43;2.50;;;5.00;99.90;;;;;;4251267;27;20039;-82
2023/12/22 02:44:58;;;;;;;17.65;2.58;;;6.40;99.90;;;;;;4251358;27;20535;-82
2023/12/22 02:46:59;;;;;;;15.27;2.47;;;6.40;99.90;;;;;;4251421;27;20050;-82
2023/12/22 02:48:59;;;;;;;11.93;2.08;;;5.10;99.90;;;;;;4251194;27;20092;-81
2023/12/22 02:51:00;;;;;;;20.60;3.10;;;5.10;99.90;;;;;;4251119;27;20039;-82
2023/12/22 02:53:01;;;;;;;23.60;3.53;;;5.20;99.90;;;;;;4250729;27;20058;-82
2023/12/22 02:55:02;;;;;;;18.88;2.55;;;5.20;99.90;;;;;;4250504;27;20464;-81
2023/12/22 02:57:03;;;;;;;16.02;2.67;;;5.30;99.90;;;;;;4251435;27;20074;-81
2023/12/22 02:59:03;;;;;;;19.48;2.67;;;5.30;99.90;;;;;;4250753;27;20059;-82
2023/12/22 03:01:06;;;;;;;19.23;2.72;;;5.40;99.90;;;;;;4250787;27;20035;-82
2023/12/22 03:03:07;;;;;;;8.38;1.60;;;5.50;99.90;;;;;;4250479;27;20047;-82
2023/12/22 03:05:08;;;;;;;8.52;1.30;;;5.40;99.90;;;;;;4250941;27;20529;-82
2023/12/22 03:07:09;;;;;;;7.43;1.55;;;5.30;99.90;;;;;;4251149;27;20038;-82
2023/12/22 03:09:10;;;;;;;6.18;1.13;;;5.10;99.90;;;;;;4250897;27;20070;-81
2023/12/22 03:11:12;;;;;;;10.48;1.25;;;5.10;99.90;;;;;;4250885;27;20047;-82
2023/12/22 03:13:14;;;;;;;8.95;1.90;;;5.60;99.90;;;;;;4239981;27;20494;-82
2023/12/22 03:15:15;;;;;;;11.80;1.38;;;4.90;99.90;;;;;;4215953;28;20202;-82
2023/12/22 03:17:16;;;;;;;11.32;1.55;;;4.70;99.90;;;;;;4234139;28;20043;-82
2023/12/22 03:19:16;;;;;;;9.02;1.33;;;4.70;99.90;;;;;;4247067;27;20499;-82
2023/12/22 03:21:21;;;;;;;13.07;2.15;;;4.70;99.90;;;;;;4251465;27;20043;-81
2023/12/22 03:23:23;;;;;;;12.20;1.95;;;4.60;99.90;;;;;;4251542;27;20105;-81
2023/12/22 03:25:25;;;;;;;12.90;3.22;;;4.60;99.90;;;;;;4251037;27;20458;-82
2023/12/22 03:27:27;;;;;;;10.27;1.50;;;4.60;99.90;;;;;;4251155;27;20148;-81
2023/12/22 03:29:28;;;;;;;12.88;2.20;;;5.10;99.90;;;;;;4249332;27;20118;-81
2023/12/22 03:31:29;;;;;;;14.65;2.25;;;4.60;99.90;;;;;;4240557;27;20050;-81
2023/12/22 03:33:29;;;;;;;11.32;1.80;;;4.60;99.90;;;;;;4252129;27;20477;-81
2023/12/22 03:35:30;;;;;;;16.77;4.07;;;4.60;99.90;;;;;;4250839;27;20054;-81
2023/12/22 03:37:32;;;;;;;14.30;2.95;;;4.60;99.90;;;;;;4246959;27;20054;-81
2023/12/22 03:39:32;;;;;;;20.10;3.35;;;4.70;99.90;;;;;;4265526;27;20047;-82
2023/12/22 03:41:34;;;;;;;24.27;3.10;;;4.90;99.90;;;;;;4245822;28;20035;-82
2023/12/22 03:43:34;;;;;;;18.25;2.15;;;5.80;99.90;;;;;;4264575;27;20071;-82
2023/12/22 03:45:35;;;;;;;16.50;2.63;;;5.20;99.90;;;;;;4264015;27;20117;-82
2023/12/22 03:47:36;;;;;;;17.70;3.28;;;5.00;99.90;;;;;;4264795;27;20041;-82
2023/12/22 03:49:38;;;;;;;9.18;1.65;;;5.30;99.90;;;;;;4264727;27;20027;-82
2023/12/22 03:51:41;;;;;;;19.45;1.92;;;5.30;99.90;;;;;;4263872;27;20117;-82
2023/12/22 03:53:42;;;;;;;15.88;1.40;;;5.30;99.90;;;;;;4246644;27;20039;-83
2023/12/22 03:55:42;;;;;;;14.60;2.40;;;5.30;99.90;;;;;;4238317;27;20479;-83
2023/12/22 03:57:43;;;;;;;15.65;2.95;;;5.30;99.90;;;;;;4233644;28;20484;-82
2023/12/22 03:59:44;;;;;;;14.93;2.53;;;5.90;99.90;;;;;;4249178;27;20059;-83
2023/12/22 04:01:52;;;;;;;10.68;2.08;;;5.30;99.90;;;;;;4249998;27;20043;-83
2023/12/22 04:03:52;;;;;;;12.55;1.73;;;5.40;99.90;;;;;;4249775;27;20042;-83
2023/12/22 04:05:53;;;;;;;17.30;2.08;;;4.90;99.90;;;;;;4250511;27;20061;-83
2023/12/22 04:07:53;;;;;;;16.30;2.03;;;5.40;99.90;;;;;;4250079;27;20046;-82
2023/12/22 04:09:56;;;;;;;13.98;2.25;;;5.40;99.90;;;;;;4248538;27;20035;-82
2023/12/22 04:11:57;;;;;;;11.10;2.10;;;6.10;99.90;;;;;;4234162;28;20047;-83
2023/12/22 04:13:58;;;;;;;10.55;3.13;;;5.40;99.90;;;;;;4233069;28;20047;-82
2023/12/22 04:15:59;;;;;;;16.17;2.38;;;6.60;99.90;;;;;;4245065;27;20046;-82
2023/12/22 04:18:02;;;;;;;14.30;2.08;;;5.30;99.90;;;;;;4250259;27;20039;-82
2023/12/22 04:20:03;;;;;;;27.85;4.47;;;5.20;99.90;;;;;;4250019;27;20452;-82
2023/12/22 04:22:04;;;;;;;20.80;2.47;;;5.20;99.90;;;;;;4250048;27;20051;-82
2023/12/22 04:24:05;;;;;;;15.77;2.10;;;5.20;99.90;;;;;;4249581;27;20118;-82
2023/12/22 04:26:06;;;;;;;21.73;3.58;;;5.20;99.90;;;;;;4249774;27;20388;-82
2023/12/22 04:28:07;;;;;;;23.98;3.17;;;5.20;99.90;;;;;;4249679;27;20042;-83
2023/12/22 04:30:09;;;;;;;25.13;4.45;;;5.20;99.90;;;;;;4236865;27;20032;-82
2023/12/22 04:32:10;;;;;;;16.17;2.75;;;5.20;99.90;;;;;;4249359;27;20046;-82
2023/12/22 04:34:15;;;;;;;15.35;1.98;;;5.30;99.90;;;;;;4250917;27;20043;-82
2023/12/22 04:36:16;;;;;;;15.07;3.00;;;4.80;99.90;;;;;;4250439;27;20540;-82
2023/12/22 04:38:18;;;;;;;12.95;2.15;;;5.40;99.90;;;;;;4250061;27;20125;-82
2023/12/22 04:40:19;;;;;;;19.23;2.88;;;5.50;99.90;;;;;;4250577;27;20115;-83
2023/12/22 04:42:21;;;;;;;19.88;2.38;;;5.50;99.90;;;;;;4250783;27;20416;-82
2023/12/22 04:44:22;;;;;;;18.10;3.78;;;5.60;99.90;;;;;;4250460;27;20067;-82
2023/12/22 04:46:30;;;;;;;19.90;3.83;;;5.60;99.90;;;;;;4250596;27;20122;-82
2023/12/22 04:48:32;;;;;;;13.13;2.00;;;5.70;99.90;;;;;;4232760;28;20063;-83
2023/12/22 04:50:33;;;;;;;14.82;2.05;;;5.80;99.90;;;;;;4234167;28;20062;-83
2023/12/22 04:52:34;;;;;;;14.80;1.92;;;5.80;99.90;;;;;;4234583;28;20047;-82
2023/12/22 04:54:35;;;;;;;11.70;2.55;;;5.90;99.90;;;;;;4234046;28;20054;-83
2023/12/22 04:56:37;;;;;;;13.15;2.45;;;5.90;99.90;;;;;;4250277;27;20047;-82
2023/12/22 04:58:37;;;;;;;11.38;1.95;;;6.30;99.90;;;;;;4250055;27;20483;-81
2023/12/22 05:00:38;;;;;;;14.50;1.70;;;5.90;99.90;;;;;;4250763;27;20039;-82
2023/12/22 05:02:39;;;;;;;17.35;2.17;;;5.90;99.90;;;;;;4249614;27;20035;-82
2023/12/22 05:04:39;;;;;;;12.98;2.58;;;5.80;99.90;;;;;;4248316;28;20399;-83
2023/12/22 05:06:40;;;;;;;20.05;2.55;;;5.90;99.90;;;;;;4249388;28;20057;-82
2023/12/22 05:08:41;;;;;;;17.85;2.55;;;6.00;99.90;;;;;;4248814;28;20144;-82
2023/12/22 05:10:42;;;;;;;24.00;4.20;;;5.90;99.90;;;;;;4249225;28;20095;-81
2023/12/22 05:12:43;;;;;;;15.43;2.65;;;6.00;99.90;;;;;;4249688;28;20035;-81
2023/12/22 05:14:44;;;;;;;20.67;3.50;;;6.00;99.90;;;;;;4249197;27;20046;-82
2023/12/22 05:16:45;;;;;;;17.13;2.35;;;6.10;99.90;;;;;;4248096;27;20038;-82
2023/12/22 05:18:46;;;;;;;14.77;2.17;;;6.10;99.90;;;;;;4253535;27;20095;-80
2023/12/22 05:20:47;;;;;;;17.63;2.00;;;6.10;99.90;;;;;;4252761;27;20043;-80
2023/12/22 05:22:48;;;;;;;17.92;1.80;;;6.10;99.90;;;;;;4251900;27;20042;-81
2023/12/22 05:24:49;;;;;;;11.38;1.60;;;6.50;99.90;;;;;;4251894;27;20132;-81
2023/12/22 05:26:51;;;;;;;9.93;2.15;;;6.20;99.90;;;;;;4251780;27;20035;-80
2023/12/22 05:28:53;;;;;;;21.33;2.30;;;6.20;99.90;;;;;;4237751;27;20050;-80
2023/12/22 05:30:54;;;;;;;15.32;2.58;;;7.20;99.90;;;;;;4234825;28;20100;-81
2023/12/22 05:32:54;;;;;;;17.50;3.47;;;6.20;99.90;;;;;;4221105;28;20047;-80
2023/12/22 05:34:56;;;;;;;18.45;2.30;;;6.20;99.90;;;;;;4250669;27;20406;-81
2023/12/22 05:36:56;;;;;;;15.02;2.70;;;6.20;99.90;;;;;;4249235;27;20099;-80
2023/12/22 05:38:59;;;;;;;15.18;2.58;;;6.90;99.90;;;;;;4251286;27;20479;-80
2023/12/22 05:41:00;;;;;;;19.52;3.80;;;6.20;99.90;;;;;;4250011;27;20118;-80
2023/12/22 05:43:00;;;;;;;14.32;3.20;;;6.20;99.90;;;;;;4251800;27;20053;-80
2023/12/22 05:45:01;;;;;;;20.55;2.65;;;6.20;99.90;;;;;;4233201;28;20093;-80
2023/12/22 05:47:01;;;;;;;20.80;3.47;;;6.20;99.90;;;;;;4251312;27;20572;-80
2023/12/22 05:49:02;;;;;;;13.13;1.85;;;6.20;99.90;;;;;;4250828;27;20559;-80
2023/12/22 05:51:07;;;;;;;18.17;3.25;;;6.30;99.90;;;;;;4251255;27;20393;-80
2023/12/22 05:53:07;;;;;;;23.20;3.28;;;6.30;99.90;;;;;;4247209;27;20047;-80
2023/12/22 05:55:08;;;;;;;15.73;3.45;;;6.40;99.90;;;;;;4239573;27;20046;-80
2023/12/22 05:57:09;;;;;;;22.23;2.95;;;6.20;99.90;;;;;;4269274;27;20098;-80
2023/12/22 05:59:10;;;;;;;25.33;3.00;;;6.30;99.90;;;;;;4256636;27;20395;-80
2023/12/22 06:01:22;;;;;;;23.80;3.47;;;6.30;99.90;;;;;;4243819;27;20122;-80
2023/12/22 06:03:24;;;;;;;21.38;3.45;;;6.20;99.90;;;;;;4256840;27;20410;-80
2023/12/22 06:05:25;;;;;;;17.08;2.00;;;6.30;99.90;;;;;;4256353;27;20031;-80
2023/12/22 06:07:26;;;;;;;24.10;3.50;;;6.30;99.90;;;;;;4257252;27;20110;-80
2023/12/22 06:09:30;;;;;;;18.42;3.55;;;6.40;99.90;;;;;;4256159;27;20425;-80
2023/12/22 06:11:38;;;;;;;21.92;2.97;;;6.30;99.90;;;;;;4253984;27;20487;-79
2023/12/22 06:13:41;;;;;;;20.77;2.35;;;6.30;99.90;;;;;;4260024;27;20050;-80
2023/12/22 06:15:42;;;;;;;21.50;3.00;;;6.30;99.90;;;;;;4268380;27;20088;-80
2023/12/22 06:17:42;;;;;;;23.45;3.47;;;5.90;99.90;;;;;;4250015;28;20047;-80
2023/12/22 06:19:44;;;;;;;17.40;3.83;;;6.30;99.90;;;;;;4252667;27;20047;-79
2023/12/22 06:21:45;;;;;;;15.70;2.17;;;6.30;99.90;;;;;;4266996;27;20047;-79
2023/12/22 06:23:46;;;;;;;22.92;3.72;;;6.80;99.90;;;;;;4268916;27;20043;-80
2023/12/22 06:25:48;;;;;;;20.05;2.67;;;6.30;99.90;;;;;;4267486;27;20050;-80
2023/12/22 06:27:49;;;;;;;21.73;3.08;;;6.60;99.90;;;;;;4237869;28;20048;-80
2023/12/22 06:29:50;;;;;;;17.42;2.60;;;6.40;99.90;;;;;;4253958;27;20043;-80
2023/12/22 06:31:51;;;;;;;18.15;3.30;;;5.80;99.90;;;;;;4252732;27;20084;-80
2023/12/22 06:33:53;;;;;;;18.05;2.83;;;6.90;99.90;;;;;;4252583;27;20050;-80
2023/12/22 06:35:54;;;;;;;18.35;2.30;;;6.40;99.90;;;;;;4252095;27;20047;-79
2023/12/22 06:37:56;;;;;;;16.38;2.90;;;6.40;99.90;;;;;;4261929;27;20058;-79
2023/12/22 06:39:58;;;;;;;13.40;2.28;;;6.30;99.90;;;;;;4249593;27;20467;-79
2023/12/22 06:41:58;;;;;;;10.75;1.52;;;6.50;99.90;;;;;;4254755;27;20090;-80
2023/12/22 06:44:00;;;;;;;18.92;2.25;;;6.00;99.90;;;;;;4255914;27;20064;-80
2023/12/22 06:46:02;;;;;;;18.25;2.08;;;5.80;99.90;;;;;;4264966;27;20053;-80
2023/12/22 06:48:03;;;;;;;17.73;3.28;;;5.70;99.90;;;;;;4263754;27;20057;-80
2023/12/22 06:50:04;;;;;;;8.10;1.50;;;5.60;99.90;;;;;;4261575;27;20099;-80
2023/12/22 06:52:05;;;;;;;8.20;1.15;;;5.60;99.90;;;;;;4261127;27;20464;-80
2023/12/22 06:54:05;;;;;;;9.15;1.88;;;5.50;99.90;;;;;;4262001;27;20399;-80
2023/12/22 06:56:18;;;;;;;18.20;3.03;;;5.50;99.90;;;;;;4256415;27;20051;-80
2023/12/22 06:58:21;;;;;;;11.63;1.67;;;5.90;99.90;;;;;;4260669;27;20039;-80
2023/12/22 07:00:21;;;;;;;9.63;1.80;;;5.50;99.90;;;;;;4253316;27;20479;-80
2023/12/22 07:02:22;;;;;;;15.68;2.78;;;5.60;99.90;;;;;;4252524;27;20035;-81
2023/12/22 07:05:07;;;;;;;14.48;2.38;;;5.50;99.90;;;;;;4252492;27;20085;-81
2023/12/22 07:07:08;;;;;;;18.02;2.70;;;5.60;99.90;;;;;;4252517;27;20522;-81
2023/12/22 07:09:12;;;;;;;13.82;2.40;;;5.60;99.90;;;;;;4252506;27;20391;-81
2023/12/22 07:11:12;;;;;;;15.80;2.72;;;5.50;99.90;;;;;;4252310;27;20127;-81
2023/12/22 07:13:14;;;;;;;18.38;1.85;;;5.60;99.90;;;;;;4250219;27;20039;-81
2023/12/22 07:15:15;;;;;;;16.33;2.53;;;5.60;99.90;;;;;;4236252;28;20050;-81
2023/12/22 07:17:17;;;;;;;12.07;2.25;;;5.60;99.90;;;;;;4235805;28;20040;-81
2023/12/22 07:19:18;;;;;;;15.93;2.47;;;5.70;99.90;;;;;;4234479;28;20035;-81
2023/12/22 07:21:18;;;;;;;14.55;2.20;;;5.70;99.90;;;;;;4235316;28;20384;-81
2023/12/22 07:23:19;;;;;;;23.20;2.55;;;5.60;99.90;;;;;;4234841;28;20047;-81
2023/12/22 07:25:20;;;;;;;7.60;1.35;;;5.50;99.90;;;;;;4234984;28;20087;-81
2023/12/22 07:27:21;;;;;;;12.23;1.58;;;5.50;99.90;;;;;;4234925;28;20042;-81
2023/12/22 07:29:22;;;;;;;15.32;2.33;;;5.40;99.90;;;;;;4234105;28;20035;-82
2023/12/22 07:31:23;;;;;;;12.98;1.70;;;5.70;99.90;;;;;;4234413;28;20447;-82
2023/12/22 07:33:24;;;;;;;13.68;2.28;;;5.30;99.90;;;;;;4235486;27;20039;-81
2023/12/22 07:35:26;;;;;;;17.88;2.35;;;5.20;99.90;;;;;;4235351;28;20043;-81
2023/12/22 07:37:28;;;;;;;11.43;1.60;;;5.20;99.90;;;;;;4235172;28;20042;-81
2023/12/22 07:39:28;;;;;;;13.55;1.67;;;5.20;99.90;;;;;;4223500;28;20051;-81
2023/12/22 07:41:29;;;;;;;19.83;2.53;;;5.10;99.90;;;;;;4252495;27;20054;-81
2023/12/22 07:43:30;;;;;;;9.65;1.67;;;5.10;99.90;;;;;;4252143;27;20058;-81
2023/12/22 07:45:32;;;;;;;18.60;2.50;;;5.10;99.90;;;;;;4252758;27;20039;-81
2023/12/22 07:47:34;;;;;;;18.27;2.10;;;5.10;99.90;;;;;;4252783;27;20047;-81
2023/12/22 07:49:34;;;;;;;17.27;3.58;;;5.10;99.90;;;;;;4251721;27;20039;-81
2023/12/22 07:51:36;;;;;;;18.48;2.40;;;5.10;99.90;;;;;;4251284;27;20053;-81
2023/12/22 07:53:37;;;;;;;17.73;1.88;;;5.10;99.90;;;;;;4251067;27;20039;-81
2023/12/22 07:55:38;;;;;;;13.43;2.40;;;5.10;99.90;;;;;;4250620;27;20175;-81
2023/12/22 07:57:39;;;;;;;13.13;2.67;;;5.20;99.90;;;;;;4251148;27;20119;-81
2023/12/22 07:59:39;;;;;;;8.30;1.48;;;5.10;99.90;;;;;;4250276;27;20075;-81
2023/12/22 08:01:41;;;;;;;17.45;2.28;;;5.20;99.90;;;;;;4244924;27;20047;-81
2023/12/22 08:03:42;;;;;;;12.15;2.30;;;5.20;99.90;;;;;;4251230;27;20035;-82
2023/12/22 08:05:42;;;;;;;16.92;3.55;;;5.20;99.90;;;;;;4252509;27;20039;-80
2023/12/22 08:07:44;;;;;;;15.23;2.22;;;5.20;99.90;;;;;;4219682;28;20043;-81
2023/12/22 08:09:45;;;;;;;22.58;3.20;;;5.30;99.90;;;;;;4242487;27;20094;-82
2023/12/22 08:11:46;;;;;;;24.77;2.83;;;5.30;99.90;;;;;;4251830;27;20039;-81
2023/12/22 08:13:47;;;;;;;19.63;2.33;;;5.50;99.90;;;;;;4251052;27;20051;-80
2023/12/22 08:15:49;;;;;;;17.83;2.35;;;6.50;99.90;;;;;;4251124;27;20046;-81
2023/12/22 08:17:51;;;;;;;17.35;2.83;;;6.10;99.90;;;;;;4251388;27;20042;-80
2023/12/22 08:19:52;;;;;;;15.90;2.03;;;5.60;99.90;;;;;;4251527;27;20039;-80
2023/12/22 08:21:54;;;;;;;27.38;3.35;;;5.90;99.90;;;;;;4250844;27;20099;-80
2023/12/22 08:23:55;;;;;;;19.95;2.88;;;5.20;99.90;;;;;;4233087;28;20044;-80
2023/12/22 08:25:57;;;;;;;9.10;3.00;;;5.80;99.90;;;;;;4251382;27;20061;-81
2023/12/22 08:27:58;;;;;;;16.73;3.17;;;6.40;99.90;;;;;;4233177;28;20049;-81
2023/12/22 08:30:00;;;;;;;14.07;2.90;;;6.20;99.90;;;;;;4251650;27;20480;-81
2023/12/22 08:32:02;;;;;;;18.77;1.77;;;6.00;99.90;;;;;;4249696;27;20035;-81
2023/12/22 08:34:05;;;;;;;32.00;3.65;;;5.70;99.90;;;;;;4246208;27;20510;-81
2023/12/22 08:36:06;;;;;;;16.98;3.05;;;5.70;99.90;;;;;;4238976;27;20044;-81
2023/12/22 08:38:07;;;;;;;24.90;2.90;;;5.80;99.90;;;;;;4215786;28;20048;-80
2023/12/22 08:40:08;;;;;;;20.60;2.88;;;6.50;99.90;;;;;;4245935;27;20087;-81
2023/12/22 08:42:08;;;;;;;18.13;2.70;;;5.80;99.90;;;;;;4245661;27;20060;-81
2023/12/22 08:44:10;;;;;;;12.40;2.05;;;5.80;99.90;;;;;;4248859;27;20035;-81
2023/12/22 08:46:12;;;;;;;13.88;2.20;;;6.40;99.90;;;;;;4236283;27;20100;-80
2023/12/22 08:48:14;;;;;;;18.90;2.95;;;6.30;99.90;;;;;;4246347;27;20058;-80
2023/12/22 08:50:15;;;;;;;18.08;2.17;;;5.90;99.90;;;;;;4245068;27;20039;-79
2023/12/22 08:52:16;;;;;;;11.20;2.17;;;5.90;99.90;;;;;;4250006;27;20100;-79
2023/12/22 08:54:16;;;;;;;18.40;3.22;;;5.90;99.90;;;;;;4250162;27;20043;-79
2023/12/22 08:56:18;;;;;;;16.60;2.70;;;6.10;99.90;;;;;;4249477;27;20062;-79
2023/12/22 08:58:19;;;;;;;14.32;2.33;;;5.90;99.90;;;;;;4249857;27;20043;-79
2023/12/22 09:00:22;;;;;;;15.63;2.47;;;6.60;99.90;;;;;;4249601;27;20066;-80
2023/12/22 09:02:23;;;;;;;15.48;2.20;;;6.90;99.90;;;;;;4250149;27;20082;-80
2023/12/22 09:04:24;;;;;;;13.05;2.75;;;6.70;99.90;;;;;;4249451;27;20028;-77
2023/12/22 09:06:25;;;;;;;14.10;2.13;;;6.10;99.90;;;;;;4240143;28;20046;-79
2023/12/22 09:08:27;;;;;;;14.18;2.58;;;7.00;99.90;;;;;;4247318;28;20490;-79
2023/12/22 09:10:27;;;;;;;13.38;3.10;;;6.10;99.90;;;;;;4237002;28;20043;-79
2023/12/22 09:12:29;;;;;;;11.07;1.92;;;6.10;99.90;;;;;;4234808;28;20058;-78
2023/12/22 09:14:30;;;;;;;12.73;3.30;;;6.20;99.90;;;;;;4227849;28;20040;-79
2023/12/22 09:16:30;;;;;;;21.10;2.97;;;6.20;99.90;;;;;;4246295;28;20049;-79
2023/12/22 09:18:35;;;;;;;14.80;2.45;;;6.80;99.90;;;;;;4246548;28;20040;-79
2023/12/22 09:20:35;;;;;;;14.45;1.75;;;6.30;99.90;;;;;;4215912;28;20055;-78
2023/12/22 09:22:38;;;;;;;11.93;2.10;;;6.80;99.90;;;;;;4247615;28;20395;-78
2023/12/22 09:24:41;;;;;;;17.55;2.58;;;6.20;99.90;;;;;;4234971;28;20039;-78
2023/12/22 09:26:41;;;;;;;16.75;2.85;;;6.50;99.90;;;;;;4247166;27;20040;-78
2023/12/22 09:28:42;;;;;;;14.02;2.58;;;6.50;99.90;;;;;;4236434;28;20051;-78
2023/12/22 09:30:43;;;;;;;21.50;3.40;;;6.60;99.90;;;;;;4230221;28;20071;-78
2023/12/22 09:32:45;;;;;;;15.65;2.17;;;7.10;99.90;;;;;;4199048;28;20118;-78
2023/12/22 09:34:46;;;;;;;14.88;2.30;;;6.60;99.90;;;;;;4228909;28;20515;-77
2023/12/22 09:36:47;;;;;;;12.48;1.70;;;6.50;99.90;;;;;;4217730;28;20082;-77
2023/12/22 09:38:49;;;;;;;10.63;1.98;;;6.20;99.90;;;;;;4233091;28;20403;-77
2023/12/22 09:40:50;;;;;;;15.32;2.53;;;6.70;99.90;;;;;;4226372;28;20338;-79
2023/12/22 09:42:54;;;;;;;12.65;1.63;;;6.20;99.90;;;;;;4246610;28;20043;-79
2023/12/22 09:44:59;;;;;;;13.80;3.45;;;6.40;99.90;;;;;;4235979;28;20043;-78
2023/12/22 09:47:03;;;;;;;13.98;1.92;;;6.50;99.90;;;;;;4215309;28;20606;-79
2023/12/22 09:49:04;;;;;;;14.43;1.77;;;6.60;99.90;;;;;;4247771;28;20448;-79
2023/12/22 09:51:06;;;;;;;18.08;2.45;;;6.30;99.90;;;;;;4234072;28;20044;-78
2023/12/22 09:53:09;;;;;;;13.18;3.13;;;6.30;99.90;;;;;;4245823;28;20044;-78
2023/12/22 09:55:10;;;;;;;10.77;2.15;;;6.70;99.90;;;;;;4246080;28;20097;-78
2023/12/22 09:57:12;;;;;;;16.20;2.97;;;7.00;99.90;;;;;;4244370;28;20115;-78
2023/12/22 09:59:13;;;;;;;17.63;2.33;;;6.30;99.90;;;;;;4244937;28;20075;-78
2023/12/22 10:01:15;;;;;;;11.88;1.90;;;6.60;99.90;;;;;;4247268;27;20043;-78
2023/12/22 10:03:20;;;;;;;10.35;2.05;;;6.60;99.90;;;;;;4235631;27;20036;-78
2023/12/22 10:05:21;;;;;;;12.18;1.75;;;6.50;99.90;;;;;;4240086;27;20050;-78
2023/12/22 10:07:24;;;;;;;11.48;2.22;;;6.50;99.90;;;;;;4220876;28;20082;-79
2023/12/22 10:09:25;;;;;;;10.73;1.88;;;7.20;99.90;;;;;;4240021;27;20498;-78
2023/12/22 10:11:27;;;;;;;25.30;4.22;;;6.60;99.90;;;;;;4235372;27;20035;-77
2023/12/22 10:13:28;;;;;;;10.07;1.92;;;6.70;99.90;;;;;;4250242;27;20052;-79
2023/12/22 10:15:29;;;;;;;8.30;2.05;;;6.70;99.90;;;;;;4239687;27;20051;-79
2023/12/22 10:17:30;;;;;;;11.55;2.15;;;7.10;99.90;;;;;;4238765;27;20055;-79
2023/12/22 10:19:31;;;;;;;22.98;3.17;;;7.00;99.90;;;;;;4235557;27;20035;-79
2023/12/22 10:21:31;;;;;;;16.45;2.45;;;6.90;99.90;;;;;;4239204;27;20043;-79
2023/12/22 10:23:32;;;;;;;12.85;2.40;;;7.30;99.90;;;;;;4238390;27;20070;-78
2023/12/22 10:25:33;;;;;;;14.57;1.65;;;6.80;99.90;;;;;;4250469;27;20432;-79
2023/12/22 10:27:37;;;;;;;14.93;2.10;;;6.80;99.90;;;;;;4235832;27;20054;-79
2023/12/22 10:29:38;;;;;;;13.77;2.42;;;6.80;99.90;;;;;;4247025;27;20511;-79
2023/12/22 10:31:40;;;;;;;12.98;1.95;;;7.40;99.90;;;;;;4250551;27;20038;-79
2023/12/22 10:33:43;;;;;;;15.43;2.35;;;6.80;99.90;;;;;;4246504;27;20503;-79
2023/12/22 10:35:44;;;;;;;13.60;1.55;;;6.90;99.90;;;;;;4239629;27;20116;-79